createdAt,value
2022-12-22T00:00:02.140Z,68.83
2022-12-22T00:01:02.149Z,69.00
2022-12-22T00:02:02.269Z,68.99
2022-12-22T00:03:02.192Z,68.99
2022-12-22T00:04:02.154Z,68.84
2022-12-22T00:05:02.087Z,68.70
2022-12-22T00:06:02.016Z,68.62
2022-12-22T00:07:01.999Z,68.59
2022-12-22T00:08:01.970Z,68.65
2022-12-22T00:09:05.440Z,68.69
2022-12-22T00:10:01.951Z,68.69
2022-12-22T00:11:01.958Z,68.64
2022-12-22T00:12:01.915Z,68.68
2022-12-22T00:13:01.959Z,68.69
2022-12-22T00:14:01.866Z,68.63
2022-12-22T00:15:01.873Z,68.58
2022-12-22T00:16:01.835Z,68.61
2022-12-22T00:17:02.299Z,68.83
2022-12-22T00:18:01.797Z,68.79
2022-12-22T00:19:02.668Z,68.85
2022-12-22T00:20:01.818Z,68.91
2022-12-22T00:21:02.699Z,68.93
2022-12-22T00:22:01.731Z,68.95
2022-12-22T00:23:01.776Z,68.98
2022-12-22T00:24:01.741Z,68.89
2022-12-22T00:25:01.597Z,68.92
2022-12-22T00:26:01.597Z,68.95
2022-12-22T00:27:01.560Z,69.29
2022-12-22T00:28:01.536Z,69.37
2022-12-22T00:29:01.497Z,69.56
2022-12-22T00:30:01.476Z,69.77
2022-12-22T00:31:01.463Z,69.78
2022-12-22T00:32:01.387Z,69.60
2022-12-22T00:33:01.381Z,69.46
2022-12-22T00:34:01.342Z,69.50
2022-12-22T00:35:01.300Z,69.33
2022-12-22T00:36:01.266Z,69.03
2022-12-22T00:37:01.273Z,68.67
2022-12-22T00:38:01.204Z,68.62
2022-12-22T00:39:01.162Z,68.74
2022-12-22T00:40:01.142Z,68.62
2022-12-22T00:41:01.135Z,68.55
2022-12-22T00:42:01.074Z,68.68
2022-12-22T00:43:01.220Z,68.95
2022-12-22T00:44:01.072Z,69.12
2022-12-22T00:45:01.111Z,69.53
2022-12-22T00:46:01.138Z,69.49
2022-12-22T00:47:01.056Z,69.18
2022-12-22T00:48:00.857Z,69.08
2022-12-22T00:49:00.805Z,68.99
2022-12-22T00:50:00.777Z,68.88
2022-12-22T00:51:00.736Z,68.77
2022-12-22T00:52:00.712Z,68.73
2022-12-22T00:53:00.747Z,68.66
2022-12-22T00:54:00.603Z,68.53
2022-12-22T00:55:00.571Z,68.49
2022-12-22T00:56:00.542Z,68.49
2022-12-22T00:57:00.507Z,68.43
2022-12-22T00:58:00.453Z,68.26
2022-12-22T00:59:00.420Z,68.17
2022-12-22T01:00:00.338Z,68.27
2022-12-22T01:01:00.346Z,67.99
2022-12-22T01:02:00.453Z,67.90
2022-12-22T01:03:00.384Z,68.08
2022-12-22T01:04:00.166Z,67.94
2022-12-22T01:05:00.185Z,67.89
2022-12-22T01:06:00.224Z,67.84
2022-12-22T01:07:00.056Z,67.92
2022-12-22T01:08:00.055Z,67.75
2022-12-22T01:09:00.024Z,67.69
2022-12-22T01:09:59.977Z,67.69
2022-12-22T01:10:59.922Z,67.68
2022-12-22T01:11:59.910Z,67.48
2022-12-22T01:12:59.879Z,67.34
2022-12-22T01:13:59.824Z,67.55
2022-12-22T01:14:59.814Z,67.61
2022-12-22T01:15:59.796Z,67.56
2022-12-22T01:16:59.718Z,67.66
2022-12-22T01:17:59.691Z,67.76
2022-12-22T01:18:59.709Z,67.52
2022-12-22T01:19:59.626Z,67.27
2022-12-22T01:20:59.588Z,67.05
2022-12-22T01:21:59.553Z,67.03
2022-12-22T01:22:59.491Z,67.06
2022-12-22T01:23:59.471Z,67.22
2022-12-22T01:24:59.440Z,67.37
2022-12-22T01:25:59.388Z,67.21
2022-12-22T01:26:59.324Z,67.25
2022-12-22T01:27:59.295Z,67.31
2022-12-22T01:28:59.240Z,67.50
2022-12-22T01:29:59.191Z,67.45
2022-12-22T01:30:59.233Z,67.45
2022-12-22T01:31:59.091Z,67.43
2022-12-22T01:32:59.056Z,67.47
2022-12-22T01:33:59.069Z,67.61
2022-12-22T01:34:58.983Z,67.66
2022-12-22T01:35:58.942Z,67.61
2022-12-22T01:36:58.903Z,67.65
2022-12-22T01:37:58.884Z,67.46
2022-12-22T01:38:58.870Z,67.43
2022-12-22T01:39:58.812Z,67.39
2022-12-22T01:40:58.782Z,67.56
2022-12-22T01:41:58.767Z,67.62
2022-12-22T01:42:58.732Z,67.58
2022-12-22T01:43:58.687Z,67.41
2022-12-22T01:44:58.640Z,67.25
2022-12-22T01:45:58.628Z,67.22
2022-12-22T01:46:58.561Z,67.13
2022-12-22T01:47:58.534Z,67.23
2022-12-22T01:48:58.465Z,66.94
2022-12-22T01:49:58.407Z,66.76
2022-12-22T01:50:58.368Z,66.69
2022-12-22T01:51:58.319Z,66.77
2022-12-22T01:52:58.277Z,67.07
2022-12-22T01:53:58.243Z,67.37
2022-12-22T01:54:58.205Z,67.35
2022-12-22T01:55:58.151Z,67.37
2022-12-22T01:56:58.111Z,67.22
2022-12-22T01:57:58.070Z,66.95
2022-12-22T01:58:58.028Z,66.83
2022-12-22T01:59:57.981Z,66.74
2022-12-22T02:00:57.914Z,66.66
2022-12-22T02:01:58.000Z,66.64
2022-12-22T02:02:58.741Z,66.70
2022-12-22T02:03:58.260Z,66.77
2022-12-22T02:04:57.850Z,66.77
2022-12-22T02:05:57.671Z,66.74
2022-12-22T02:07:00.316Z,66.78
2022-12-22T02:07:57.484Z,66.84
2022-12-22T02:08:57.428Z,66.92
2022-12-22T02:09:57.360Z,66.87
2022-12-22T02:10:57.303Z,66.79
2022-12-22T02:11:57.262Z,66.84
2022-12-22T02:12:57.231Z,66.86
2022-12-22T02:13:57.149Z,66.88
2022-12-22T02:14:57.100Z,66.69
2022-12-22T02:15:57.149Z,66.41
2022-12-22T02:16:57.050Z,66.22
2022-12-22T02:17:57.071Z,66.15
2022-12-22T02:18:56.964Z,66.53
2022-12-22T02:19:56.940Z,67.11
2022-12-22T02:20:56.912Z,67.16
2022-12-22T02:21:56.872Z,67.06
2022-12-22T02:22:56.831Z,67.29
2022-12-22T02:23:56.801Z,67.32
2022-12-22T02:24:56.756Z,67.40
2022-12-22T02:25:56.749Z,67.18
2022-12-22T02:26:56.716Z,66.99
2022-12-22T02:27:56.686Z,66.94
2022-12-22T02:28:56.669Z,67.03
2022-12-22T02:29:56.639Z,67.15
2022-12-22T02:30:56.625Z,67.25
2022-12-22T02:31:56.620Z,67.31
2022-12-22T02:32:56.567Z,67.47
2022-12-22T02:33:56.569Z,67.45
2022-12-22T02:34:56.551Z,67.41
2022-12-22T02:35:56.515Z,67.45
2022-12-22T02:36:56.504Z,67.51
2022-12-22T02:37:56.507Z,67.51
2022-12-22T02:38:56.469Z,67.58
2022-12-22T02:39:56.493Z,67.54
2022-12-22T02:40:56.420Z,67.63
2022-12-22T02:41:56.428Z,67.63
2022-12-22T02:42:56.387Z,67.97
2022-12-22T02:43:56.370Z,68.17
2022-12-22T02:44:56.344Z,68.44
2022-12-22T02:45:56.348Z,68.74
2022-12-22T02:46:56.315Z,68.77
2022-12-22T02:47:56.250Z,68.92
2022-12-22T02:48:56.232Z,69.17
2022-12-22T02:49:56.199Z,69.45
2022-12-22T02:50:56.154Z,69.47
2022-12-22T02:51:56.098Z,69.19
2022-12-22T02:52:56.065Z,68.78
2022-12-22T02:53:56.023Z,68.62
2022-12-22T02:54:55.983Z,68.83
2022-12-22T02:55:55.938Z,68.84
2022-12-22T02:56:55.902Z,68.53
2022-12-22T02:57:55.856Z,68.28
2022-12-22T02:58:55.860Z,68.10
2022-12-22T02:59:55.767Z,68.63
2022-12-22T03:00:55.706Z,68.84
2022-12-22T03:01:55.811Z,68.70
2022-12-22T03:02:55.829Z,68.31
2022-12-22T03:03:55.705Z,68.42
2022-12-22T03:04:55.565Z,68.68
2022-12-22T03:05:55.508Z,68.57
2022-12-22T03:06:55.456Z,68.65
2022-12-22T03:07:55.420Z,68.63
2022-12-22T03:08:55.385Z,68.74
2022-12-22T03:09:55.343Z,68.74
2022-12-22T03:10:55.331Z,68.65
2022-12-22T03:11:55.324Z,68.39
2022-12-22T03:12:55.241Z,68.13
2022-12-22T03:13:55.232Z,67.96
2022-12-22T03:14:55.204Z,68.06
2022-12-22T03:15:55.224Z,68.23
2022-12-22T03:16:55.169Z,68.29
2022-12-22T03:17:55.120Z,68.30
2022-12-22T03:18:55.101Z,68.36
2022-12-22T03:19:55.081Z,68.51
2022-12-22T03:20:55.037Z,68.63
2022-12-22T03:21:55.047Z,68.67
2022-12-22T03:22:55.005Z,68.54
2022-12-22T03:23:54.961Z,68.54
2022-12-22T03:24:54.951Z,68.46
2022-12-22T03:25:54.958Z,68.27
2022-12-22T03:26:54.908Z,68.08
2022-12-22T03:27:54.880Z,67.95
2022-12-22T03:28:54.854Z,67.96
2022-12-22T03:29:54.818Z,67.80
2022-12-22T03:30:54.797Z,67.78
2022-12-22T04:32:52.517Z,67.99
2022-12-22T04:33:52.493Z,67.59
2022-12-22T04:34:52.460Z,67.45
2022-12-22T04:35:52.434Z,67.45
2022-12-22T04:36:52.429Z,68.11
2022-12-22T04:37:52.390Z,68.00
2022-12-22T04:38:52.349Z,67.73
2022-12-22T04:39:52.326Z,67.57
2022-12-22T04:40:52.305Z,67.47
2022-12-22T04:41:52.280Z,67.55
2022-12-22T04:42:52.273Z,68.40
2022-12-22T04:43:52.253Z,68.83
2022-12-22T04:44:52.248Z,68.96
2022-12-22T04:45:52.262Z,68.77
2022-12-22T04:46:52.196Z,68.46
2022-12-22T04:47:52.171Z,68.31
2022-12-22T04:48:57.873Z,68.18
2022-12-22T04:49:53.134Z,68.37
2022-12-22T04:50:52.116Z,68.50
2022-12-22T04:51:52.098Z,68.38
2022-12-22T04:52:52.096Z,68.17
2022-12-22T04:53:52.703Z,68.42
2022-12-22T04:54:52.718Z,68.75
2022-12-22T04:55:52.206Z,68.87
2022-12-22T04:56:52.706Z,68.54
2022-12-22T04:57:52.068Z,68.48
2022-12-22T04:58:52.030Z,68.85
2022-12-22T04:59:52.063Z,68.87
2022-12-22T05:00:51.918Z,68.61
2022-12-22T05:01:51.957Z,68.32
2022-12-22T05:02:51.955Z,68.00
2022-12-22T05:03:51.898Z,67.79
2022-12-22T05:04:51.695Z,67.72
2022-12-22T05:05:51.672Z,67.86
2022-12-22T05:06:51.621Z,67.90
2022-12-22T05:07:51.565Z,67.98
2022-12-22T05:08:51.557Z,67.94
2022-12-22T05:09:52.195Z,67.93
2022-12-22T05:10:51.701Z,68.09
2022-12-22T05:11:51.721Z,68.08
2022-12-22T05:12:51.547Z,68.09
2022-12-22T05:13:52.205Z,68.03
2022-12-22T05:14:51.452Z,67.92
2022-12-22T05:15:51.279Z,68.03
2022-12-22T05:16:51.327Z,67.94
2022-12-22T05:17:51.222Z,67.95
2022-12-22T05:18:51.167Z,67.93
2022-12-22T05:19:51.126Z,67.96
2022-12-22T05:20:51.093Z,68.05
2022-12-22T05:21:51.053Z,68.17
2022-12-22T05:22:51.030Z,68.22
2022-12-22T05:23:51.044Z,68.23
2022-12-22T05:24:50.942Z,68.19
2022-12-22T05:25:50.903Z,68.43
2022-12-22T05:26:50.873Z,68.72
2022-12-22T05:27:50.846Z,68.95
2022-12-22T05:28:50.816Z,68.92
2022-12-22T05:29:50.776Z,68.88
2022-12-22T05:30:50.799Z,68.95
2022-12-22T05:31:50.694Z,68.85
2022-12-22T05:32:50.655Z,68.55
2022-12-22T05:33:50.625Z,68.36
2022-12-22T05:34:50.555Z,68.19
2022-12-22T05:35:50.541Z,68.12
2022-12-22T05:36:50.480Z,68.11
2022-12-22T05:37:50.476Z,68.11
2022-12-22T05:38:50.429Z,68.12
2022-12-22T05:39:50.391Z,68.10
2022-12-22T05:40:50.357Z,68.18
2022-12-22T05:41:50.324Z,68.30
2022-12-22T05:42:50.309Z,68.46
2022-12-22T05:43:50.295Z,68.49
2022-12-22T05:44:50.238Z,68.46
2022-12-22T05:45:50.281Z,68.72
2022-12-22T05:46:50.179Z,68.55
2022-12-22T05:47:50.145Z,68.36
2022-12-22T05:48:50.151Z,68.77
2022-12-22T05:49:50.091Z,68.81
2022-12-22T05:50:50.077Z,68.59
2022-12-22T05:51:50.061Z,68.36
2022-12-22T05:52:50.003Z,68.27
2022-12-22T05:53:49.969Z,68.31
2022-12-22T05:54:49.935Z,68.59
2022-12-22T05:55:49.898Z,68.76
2022-12-22T05:56:49.885Z,68.68
2022-12-22T05:57:49.833Z,68.44
2022-12-22T05:58:49.807Z,68.31
2022-12-22T05:59:49.776Z,68.37
2022-12-22T06:00:49.715Z,68.71
2022-12-22T06:01:49.772Z,68.83
2022-12-22T06:02:49.822Z,68.53
2022-12-22T06:03:53.261Z,68.42
2022-12-22T06:04:50.613Z,68.45
2022-12-22T06:05:49.593Z,68.35
2022-12-22T06:06:49.515Z,68.24
2022-12-22T06:07:49.474Z,68.12
2022-12-22T06:08:49.429Z,67.99
2022-12-22T06:09:49.384Z,67.69
2022-12-22T06:10:49.355Z,67.31
2022-12-22T06:11:49.260Z,67.18
2022-12-22T06:12:49.224Z,67.07
2022-12-22T06:13:49.175Z,67.21
2022-12-22T06:14:49.147Z,67.11
2022-12-22T06:15:49.128Z,66.83
2022-12-22T06:16:49.048Z,66.69
2022-12-22T06:17:49.057Z,66.63
2022-12-22T06:18:48.991Z,66.53
2022-12-22T06:19:48.952Z,66.67
2022-12-22T06:20:48.937Z,66.87
2022-12-22T06:21:48.885Z,67.43
2022-12-22T06:22:48.858Z,67.75
2022-12-22T06:23:48.786Z,67.77
2022-12-22T06:24:48.748Z,68.09
2022-12-22T06:25:48.695Z,68.38
2022-12-22T06:26:48.645Z,68.41
2022-12-22T06:27:48.594Z,68.82
2022-12-22T06:28:48.592Z,68.74
2022-12-22T06:29:48.484Z,68.34
2022-12-22T06:30:48.501Z,68.14
2022-12-22T06:31:48.461Z,67.87
2022-12-22T06:32:48.381Z,67.22
2022-12-22T06:33:48.314Z,67.64
2022-12-22T06:34:48.286Z,68.15
2022-12-22T06:35:53.676Z,68.19
2022-12-22T06:36:49.295Z,67.80
2022-12-22T06:37:48.178Z,67.75
2022-12-22T06:38:48.458Z,67.79
2022-12-22T06:39:48.121Z,67.91
2022-12-22T06:40:48.099Z,67.76
2022-12-22T06:41:48.052Z,67.65
2022-12-22T06:42:48.037Z,67.43
2022-12-22T06:43:48.029Z,67.29
2022-12-22T06:44:47.982Z,67.02
2022-12-22T06:45:48.028Z,66.92
2022-12-22T06:46:48.051Z,66.75
2022-12-22T06:47:48.087Z,66.69
2022-12-22T06:48:47.767Z,66.91
2022-12-22T06:49:47.719Z,67.04
2022-12-22T06:50:47.681Z,67.03
2022-12-22T06:51:47.645Z,66.83
2022-12-22T06:52:47.598Z,67.13
2022-12-22T06:53:47.561Z,67.09
2022-12-22T06:54:47.515Z,67.21
2022-12-22T06:55:47.476Z,67.75
2022-12-22T06:56:47.463Z,68.60
2022-12-22T06:57:47.387Z,68.76
2022-12-22T06:58:47.358Z,68.51
2022-12-22T06:59:50.884Z,68.61
2022-12-22T07:00:48.373Z,68.88
2022-12-22T07:01:47.342Z,69.29
2022-12-22T07:02:47.464Z,69.30
2022-12-22T07:03:47.252Z,69.23
2022-12-22T07:04:47.188Z,69.41
2022-12-22T07:05:47.177Z,69.36
2022-12-22T07:06:47.118Z,69.10
2022-12-22T07:07:47.084Z,68.97
2022-12-22T07:08:47.030Z,68.88
2022-12-22T07:09:46.994Z,68.44
2022-12-22T07:10:46.969Z,68.15
2022-12-22T07:11:46.930Z,68.01
2022-12-22T07:12:46.982Z,68.51
2022-12-22T07:13:46.890Z,68.70
2022-12-22T07:14:46.821Z,68.61
2022-12-22T07:15:46.837Z,68.63
2022-12-22T07:16:46.781Z,68.69
2022-12-22T07:17:46.686Z,68.44
2022-12-22T07:18:46.632Z,68.53
2022-12-22T07:19:46.562Z,68.59
2022-12-22T07:20:46.525Z,68.49
2022-12-22T07:21:46.485Z,68.46
2022-12-22T07:22:46.458Z,68.35
2022-12-22T07:23:46.395Z,68.54
2022-12-22T07:24:46.416Z,68.44
2022-12-22T07:25:46.347Z,68.43
2022-12-22T07:26:46.267Z,68.23
2022-12-22T07:27:46.233Z,67.81
2022-12-22T07:28:46.237Z,67.76
2022-12-22T07:29:46.169Z,67.96
2022-12-22T07:30:46.114Z,67.88
2022-12-22T07:31:46.139Z,67.49
2022-12-22T07:32:46.038Z,67.83
2022-12-22T07:33:46.007Z,67.54
2022-12-22T07:34:45.964Z,67.56
2022-12-22T07:35:45.952Z,67.53
2022-12-22T07:36:45.894Z,67.52
2022-12-22T07:37:45.814Z,67.56
2022-12-22T07:38:45.788Z,67.91
2022-12-22T07:39:45.748Z,68.03
2022-12-22T07:40:51.048Z,67.96
2022-12-22T07:41:46.676Z,67.92
2022-12-22T07:42:45.649Z,67.54
2022-12-22T07:43:45.612Z,67.41
2022-12-22T07:44:45.577Z,67.18
2022-12-22T07:45:45.509Z,66.98
2022-12-22T07:46:45.574Z,66.80
2022-12-22T07:47:45.421Z,66.65
2022-12-22T07:48:45.417Z,66.52
2022-12-22T07:49:45.353Z,66.42
2022-12-22T07:50:45.280Z,66.21
2022-12-22T07:51:45.206Z,66.04
2022-12-22T07:52:45.174Z,66.00
2022-12-22T07:53:45.123Z,66.03
2022-12-22T07:54:45.108Z,66.09
2022-12-22T07:55:45.125Z,66.12
2022-12-22T07:56:45.058Z,66.02
2022-12-22T07:57:45.043Z,65.91
2022-12-22T07:58:44.948Z,65.74
2022-12-22T07:59:44.912Z,65.56
2022-12-22T08:00:44.826Z,65.39
2022-12-22T08:01:44.874Z,65.34
2022-12-22T08:39:42.787Z,61.97
2022-12-22T08:40:42.685Z,61.56
2022-12-22T08:41:42.597Z,61.64
2022-12-22T08:42:42.528Z,61.73
2022-12-22T08:43:42.471Z,61.55
2022-12-22T08:44:42.715Z,61.38
2022-12-22T08:45:42.432Z,61.67
2022-12-22T08:46:42.435Z,61.83
2022-12-22T08:47:42.437Z,61.67
2022-12-22T08:48:42.125Z,61.79
2022-12-22T08:49:42.064Z,61.85
2022-12-22T08:50:41.997Z,61.80
2022-12-22T08:51:41.935Z,61.71
2022-12-22T08:52:41.876Z,61.90
2022-12-22T08:54:06.799Z,62.10
2022-12-22T08:54:42.741Z,62.11
2022-12-22T08:55:42.275Z,61.93
2022-12-22T08:56:41.671Z,61.48
2022-12-22T08:58:41.456Z,61.04
2022-12-22T08:59:41.371Z,60.94
2022-12-22T09:00:41.313Z,60.68
2022-12-22T09:01:41.444Z,60.84
2022-12-22T09:02:41.302Z,60.97
2022-12-22T09:03:41.130Z,60.74
2022-12-22T09:04:41.032Z,60.66
2022-12-22T09:05:40.963Z,60.62
2022-12-22T09:06:41.558Z,60.60
2022-12-22T09:07:40.835Z,60.67
2022-12-22T09:08:40.794Z,60.67
2022-12-22T09:09:40.724Z,60.78
2022-12-22T09:10:40.615Z,60.37
2022-12-22T09:11:40.545Z,60.47
2022-12-22T09:12:40.511Z,60.63
2022-12-22T09:13:40.451Z,60.78
2022-12-22T09:14:40.381Z,60.61
2022-12-22T09:15:40.266Z,60.49
2022-12-22T09:16:40.358Z,60.68
2022-12-22T09:17:40.140Z,60.82
2022-12-22T09:18:40.120Z,60.82
2022-12-22T09:19:40.038Z,60.70
2022-12-22T10:00:37.167Z,56.37
2022-12-22T10:01:37.229Z,56.42
2022-12-22T10:02:37.239Z,56.68
2022-12-22T10:03:37.119Z,56.70
2022-12-22T10:04:37.021Z,56.60
2022-12-22T10:05:37.001Z,56.84
2022-12-22T10:06:37.155Z,56.79
2022-12-22T10:10:36.951Z,55.96
2022-12-22T10:30:36.568Z,56.94
2022-12-22T10:31:36.587Z,57.00
2022-12-22T10:32:36.566Z,57.06
2022-12-22T10:33:41.237Z,57.09
2022-12-22T10:34:37.452Z,57.10
2022-12-22T10:35:36.547Z,57.10
2022-12-22T10:36:36.343Z,56.82
2022-12-22T10:37:36.286Z,56.79
2022-12-22T10:38:36.212Z,56.68
2022-12-22T10:39:36.149Z,56.62
2022-12-22T10:40:36.091Z,56.76
2022-12-22T10:41:36.039Z,56.67
2022-12-22T10:42:36.126Z,56.55
2022-12-22T10:43:35.892Z,56.36
2022-12-22T10:44:36.277Z,56.57
2022-12-22T10:45:35.769Z,56.74
2022-12-22T10:46:35.768Z,56.86
2022-12-22T10:47:35.607Z,56.76
2022-12-22T10:48:35.566Z,56.71
2022-12-22T10:50:43.784Z,57.34
2022-12-22T10:51:43.733Z,57.15
2022-12-22T10:52:43.702Z,57.13
2022-12-22T10:53:43.673Z,56.82
2022-12-22T10:54:43.675Z,56.72
2022-12-22T10:55:43.621Z,56.56
2022-12-22T10:56:43.590Z,56.47
2022-12-22T10:57:43.581Z,56.28
2022-12-22T10:58:43.552Z,56.28
2022-12-22T10:59:43.558Z,56.21
2022-12-22T11:00:43.463Z,56.12
2022-12-22T11:01:43.522Z,56.24
2022-12-22T11:02:43.462Z,56.29
2022-12-22T11:03:43.464Z,56.22
2022-12-22T11:04:43.498Z,56.46
2022-12-22T11:05:43.353Z,56.54
2022-12-22T11:06:43.337Z,56.48
2022-12-22T11:07:43.338Z,56.63
2022-12-22T11:08:50.889Z,56.30
2022-12-22T11:09:44.268Z,56.13
2022-12-22T11:10:43.222Z,56.02
2022-12-22T11:11:43.289Z,56.08
2022-12-22T11:12:43.163Z,55.88
2022-12-22T11:13:43.190Z,55.42
2022-12-22T11:14:43.095Z,55.46
2022-12-22T11:15:43.052Z,55.51
2022-12-22T11:16:43.250Z,55.34
2022-12-22T11:17:43.182Z,55.38
2022-12-22T11:18:42.966Z,55.17
2022-12-22T11:19:42.877Z,54.90
2022-12-22T11:20:42.795Z,55.21
2022-12-22T11:21:42.778Z,55.26
2022-12-22T11:22:43.243Z,54.79
2022-12-22T11:23:43.209Z,54.45
2022-12-22T11:24:42.721Z,53.85
2022-12-22T11:25:44.221Z,53.55
2022-12-22T11:26:42.796Z,53.19
2022-12-22T11:27:45.878Z,52.96
2022-12-22T11:28:42.253Z,52.89
2022-12-22T11:29:42.194Z,52.54
2022-12-22T11:30:42.186Z,52.58
2022-12-22T11:31:42.116Z,52.43
2022-12-22T11:33:42.203Z,51.46
2022-12-22T11:34:42.148Z,51.09
2022-12-22T11:35:42.077Z,50.99
2022-12-22T11:36:42.136Z,50.90
2022-12-22T11:37:41.916Z,50.62
2022-12-22T11:38:41.885Z,50.26
2022-12-22T11:39:42.816Z,50.23
2022-12-22T11:40:41.729Z,49.90
2022-12-22T11:41:41.660Z,49.82
2022-12-22T11:42:41.576Z,49.91
2022-12-22T11:44:41.430Z,49.24
2022-12-22T11:45:43.684Z,49.12
2022-12-22T11:46:41.386Z,49.03
2022-12-22T11:47:41.288Z,48.99
2022-12-22T11:48:41.161Z,49.22
2022-12-22T11:49:41.099Z,49.30
2022-12-22T11:51:07.571Z,49.36
2022-12-22T11:51:42.022Z,49.58
2022-12-22T11:52:40.896Z,49.58
2022-12-22T11:53:40.818Z,49.72
2022-12-22T11:54:40.775Z,49.66
2022-12-22T11:55:40.714Z,49.79
2022-12-22T11:56:40.637Z,49.97
2022-12-22T11:57:40.581Z,50.41
2022-12-22T11:58:40.526Z,50.23
2022-12-22T11:59:40.444Z,49.92
2022-12-22T12:01:12.182Z,49.69
2022-12-22T12:01:41.578Z,49.54
2022-12-22T12:02:40.346Z,49.58
2022-12-22T12:03:40.268Z,49.37
2022-12-22T12:04:40.166Z,49.28
2022-12-22T12:05:40.087Z,49.34
2022-12-22T12:06:40.057Z,49.28
2022-12-22T12:07:40.001Z,49.08
2022-12-22T12:08:39.946Z,49.03
2022-12-22T12:09:39.892Z,49.06
2022-12-22T12:10:39.837Z,48.89
2022-12-22T12:11:39.795Z,48.54
2022-12-22T12:12:39.706Z,48.39
2022-12-22T12:13:39.720Z,48.52
2022-12-22T12:14:39.644Z,48.88
2022-12-22T12:15:39.566Z,48.91
2022-12-22T12:16:39.656Z,49.38
2022-12-22T12:17:39.415Z,49.86
2022-12-22T12:18:39.480Z,49.93
2022-12-22T12:19:39.356Z,49.92
2022-12-22T12:20:39.292Z,49.98
2022-12-22T12:21:39.204Z,50.33
2022-12-22T12:22:39.162Z,50.32
2022-12-22T12:23:39.104Z,50.26
2022-12-22T12:24:39.073Z,50.08
2022-12-22T12:25:39.007Z,49.80
2022-12-22T12:26:38.906Z,49.56
2022-12-22T12:27:38.837Z,49.72
2022-12-22T12:28:38.839Z,49.65
2022-12-22T12:29:38.688Z,49.70
2022-12-22T12:30:39.511Z,49.75
2022-12-22T12:31:38.673Z,49.68
2022-12-22T12:32:38.505Z,49.63
2022-12-22T12:33:38.474Z,49.39
2022-12-22T12:34:38.404Z,49.34
2022-12-22T12:35:38.325Z,49.61
2022-12-22T12:36:38.310Z,49.69
2022-12-22T12:37:38.737Z,49.83
2022-12-22T12:39:08.064Z,49.79
2022-12-22T12:39:39.159Z,49.85
2022-12-22T12:40:38.309Z,49.89
2022-12-22T12:41:38.099Z,49.83
2022-12-22T12:42:37.968Z,49.72
2022-12-22T12:43:37.913Z,49.61
2022-12-22T12:44:37.880Z,49.61
2022-12-22T12:45:37.879Z,49.57
2022-12-22T12:46:37.889Z,49.56
2022-12-22T12:47:37.872Z,49.32
2022-12-22T12:48:40.068Z,49.20
2022-12-22T12:49:38.384Z,49.09
2022-12-22T12:50:37.788Z,49.17
2022-12-22T12:51:37.717Z,49.34
2022-12-22T12:52:37.666Z,49.41
2022-12-22T12:53:37.602Z,49.49
2022-12-22T12:54:37.558Z,49.77
2022-12-22T12:55:37.516Z,49.89
2022-12-22T12:56:37.449Z,49.91
2022-12-22T12:57:37.421Z,49.67
2022-12-22T12:58:37.414Z,49.78
2022-12-22T12:59:37.387Z,50.10
2022-12-22T13:00:43.184Z,50.27
2022-12-22T13:01:38.441Z,50.63
2022-12-22T13:02:37.430Z,50.78
2022-12-22T13:04:02.696Z,50.83
2022-12-22T13:04:38.267Z,50.96
2022-12-22T13:05:37.100Z,51.07
2022-12-22T13:06:37.082Z,50.99
2022-12-22T13:07:36.992Z,51.06
2022-12-22T13:08:36.924Z,50.77
2022-12-22T13:09:50.639Z,50.82
2022-12-22T13:10:37.808Z,50.84
2022-12-22T13:12:11.188Z,50.99
2022-12-22T13:12:37.673Z,51.20
2022-12-22T13:13:36.660Z,51.29
2022-12-22T13:14:36.550Z,51.66
2022-12-22T13:15:36.496Z,51.92
2022-12-22T13:16:36.471Z,51.88
2022-12-22T13:17:36.415Z,51.91
2022-12-22T13:18:36.326Z,52.02
2022-12-22T13:19:36.250Z,52.07
2022-12-22T13:20:36.208Z,52.10
2022-12-22T13:21:52.912Z,51.97
2022-12-22T13:22:37.068Z,51.91
2022-12-22T13:23:51.385Z,51.93
2022-12-22T13:24:36.941Z,52.04
2022-12-22T13:25:35.903Z,52.21
2022-12-22T13:26:35.858Z,52.21
2022-12-22T13:27:35.801Z,52.03
2022-12-22T13:28:35.746Z,51.85
2022-12-22T13:29:35.695Z,51.58
2022-12-22T13:30:35.634Z,51.34
2022-12-22T13:31:35.613Z,51.21
2022-12-22T13:32:35.576Z,51.08
2022-12-22T13:33:35.437Z,50.78
2022-12-22T13:34:42.215Z,50.72
2022-12-22T13:35:41.389Z,50.55
2022-12-22T13:36:36.237Z,50.19
2022-12-22T13:37:35.182Z,50.03
2022-12-22T13:38:35.122Z,49.75
2022-12-22T13:39:35.042Z,49.57
2022-12-22T13:40:34.984Z,49.39
2022-12-22T13:41:34.982Z,49.16
2022-12-22T13:42:34.886Z,48.91
2022-12-22T13:43:34.712Z,49.03
2022-12-22T13:44:34.621Z,49.17
2022-12-22T13:45:34.560Z,49.12
2022-12-22T13:46:34.528Z,49.25
2022-12-22T13:47:34.362Z,49.40
2022-12-22T13:48:41.592Z,49.31
2022-12-22T13:50:07.129Z,49.52
2022-12-22T13:50:35.098Z,49.56
2022-12-22T13:51:34.014Z,49.66
2022-12-22T13:52:33.926Z,49.32
2022-12-22T13:54:33.726Z,49.73
2022-12-22T13:55:33.651Z,50.35
2022-12-22T13:56:33.571Z,50.78
2022-12-22T13:57:33.475Z,51.22
2022-12-22T13:58:33.441Z,51.70
2022-12-22T13:59:33.349Z,52.37
2022-12-22T14:00:33.388Z,52.68
2022-12-22T14:01:33.366Z,53.09
2022-12-22T14:02:33.396Z,53.35
2022-12-22T14:03:58.762Z,53.57
2022-12-22T14:04:34.155Z,53.77
2022-12-22T14:05:33.070Z,53.82
2022-12-22T14:06:32.935Z,53.98
2022-12-22T14:07:32.873Z,54.23
2022-12-22T14:08:32.806Z,54.37
2022-12-22T14:09:32.737Z,54.46
2022-12-22T14:10:32.774Z,54.47
2022-12-22T14:11:32.720Z,54.57
2022-12-22T14:12:32.724Z,54.62
2022-12-22T14:16:33.298Z,54.22
2022-12-22T14:32:31.159Z,54.59
2022-12-22T14:33:31.103Z,54.64
2022-12-22T14:34:31.034Z,54.54
2022-12-22T14:35:30.943Z,54.72
2022-12-22T14:36:30.888Z,54.97
2022-12-22T14:37:33.072Z,55.23
2022-12-22T14:38:30.809Z,55.32
2022-12-22T14:39:30.790Z,55.45
2022-12-22T14:40:30.661Z,55.61
2022-12-22T14:41:30.599Z,56.05
2022-12-22T14:42:30.522Z,56.63
2022-12-22T14:43:30.459Z,56.88
2022-12-22T14:44:30.415Z,56.99
2022-12-22T14:45:30.424Z,57.08
2022-12-22T14:46:36.790Z,57.25
2022-12-22T14:47:31.368Z,57.15
2022-12-22T14:48:30.265Z,57.00
2022-12-22T14:49:30.196Z,56.92
2022-12-22T14:50:30.127Z,56.71
2022-12-22T14:51:30.050Z,56.61
2022-12-22T14:52:30.000Z,56.43
2022-12-22T14:53:29.910Z,56.39
2022-12-22T14:54:29.860Z,56.51
2022-12-22T14:55:29.794Z,56.63
2022-12-22T14:56:29.719Z,56.65
2022-12-22T14:57:29.670Z,56.75
2022-12-22T14:58:29.594Z,56.83
2022-12-22T14:59:29.548Z,57.10
2022-12-22T15:00:29.486Z,57.15
2022-12-22T15:01:29.648Z,57.17
2022-12-22T15:02:34.980Z,57.26
2022-12-22T15:03:30.520Z,57.36
2022-12-22T15:04:29.290Z,57.41
2022-12-22T15:05:29.210Z,57.50
2022-12-22T15:06:29.179Z,57.71
2022-12-22T15:08:04.139Z,57.78
2022-12-22T15:08:36.186Z,58.00
2022-12-22T15:10:29.938Z,58.37
2022-12-22T15:11:28.899Z,58.55
2022-12-22T15:12:28.920Z,58.58
2022-12-22T15:13:28.803Z,58.65
2022-12-22T15:14:33.423Z,58.61
2022-12-22T15:15:29.699Z,58.97
2022-12-22T15:16:28.714Z,59.09
2022-12-22T15:17:28.604Z,59.12
2022-12-22T15:18:28.561Z,59.15
2022-12-22T15:19:28.514Z,59.20
2022-12-22T15:20:31.241Z,59.26
2022-12-22T15:21:29.408Z,59.23
2022-12-22T15:22:28.380Z,59.50
2022-12-22T15:23:30.265Z,59.63
2022-12-22T15:24:28.421Z,59.85
2022-12-22T15:25:28.298Z,59.98
2022-12-22T15:26:31.821Z,59.97
2022-12-22T15:27:29.132Z,60.01
2022-12-22T15:28:28.159Z,60.02
2022-12-22T15:29:28.041Z,60.16
2022-12-22T15:30:28.047Z,60.47
2022-12-22T15:31:27.993Z,60.59
2022-12-22T15:32:31.748Z,60.60
2022-12-22T15:33:28.838Z,60.82
2022-12-22T15:34:27.797Z,61.07
2022-12-22T15:35:27.765Z,61.18
2022-12-22T15:36:27.700Z,61.28
2022-12-22T15:37:27.656Z,61.39
2022-12-22T15:38:29.193Z,61.56
2022-12-22T15:39:27.588Z,61.62
2022-12-22T15:40:27.535Z,61.44
2022-12-22T15:41:27.493Z,61.54
2022-12-22T15:42:27.464Z,61.54
2022-12-22T15:43:56.499Z,61.49
2022-12-22T15:44:31.055Z,61.39
2022-12-22T15:45:28.761Z,61.41
2022-12-22T15:46:27.289Z,61.33
2022-12-22T15:47:27.192Z,61.48
2022-12-22T15:48:27.148Z,61.58
2022-12-22T15:49:27.120Z,61.70
2022-12-22T15:50:27.041Z,61.89
2022-12-22T15:51:26.995Z,61.91
2022-12-22T15:52:26.953Z,62.12
2022-12-22T15:53:26.906Z,62.31
2022-12-22T15:54:26.873Z,62.43
2022-12-22T15:55:26.837Z,62.37